Terminal Aerodrome Forecast
Issued by NWS

Home | Current Version | Previous Version | Text Only | Print | Product List | Glossary On
Versions: 1 2 3 4 5 6 7 8 9 10 11 12 13
000
FTUS41 KBTV 261130
TAFSLK
TAF
KSLK 261130Z 2612/2712 33003KT P6SM BKN035 OVC050
     FM261400 33006KT P6SM BKN050
     FM270000 VRB03KT P6SM OVC035
     FM270300 VRB03KT P6SM VCSH OVC025
     FM270600 VRB03KT 4SM -SHRA BR OVC015=

USA.gov is the U.S. government's official web portal to all federal, state and local government web resources and services.